sensor_id;sensor_type;location;lat;lon;timestamp;P1;durP1;ratioP1;P2;durP2;ratioP2
60730;SDS011;46580;52.114;11.674;2022-08-19T00:01:57;21.50;;;17.03;;
60730;SDS011;46580;52.114;11.674;2022-08-19T00:04:34;18.47;;;15.70;;
60730;SDS011;46580;52.114;11.674;2022-08-19T00:07:02;20.17;;;16.63;;
60730;SDS011;46580;52.114;11.674;2022-08-19T00:09:31;21.53;;;17.77;;
60730;SDS011;46580;52.114;11.674;2022-08-19T00:12:01;22.77;;;18.73;;
60730;SDS011;46580;52.114;11.674;2022-08-19T00:14:27;22.30;;;17.60;;
60730;SDS011;46580;52.114;11.674;2022-08-19T00:16:56;21.50;;;18.70;;
60730;SDS011;46580;52.114;11.674;2022-08-19T00:19:27;22.63;;;19.07;;
60730;SDS011;46580;52.114;11.674;2022-08-19T00:21:53;27.50;;;19.90;;
60730;SDS011;46580;52.114;11.674;2022-08-19T00:24:28;26.77;;;20.20;;
60730;SDS011;46580;52.114;11.674;2022-08-19T00:26:56;26.47;;;20.60;;
60730;SDS011;46580;52.114;11.674;2022-08-19T00:29:32;25.63;;;20.10;;
60730;SDS011;46580;52.114;11.674;2022-08-19T00:32:05;29.47;;;22.07;;
60730;SDS011;46580;52.114;11.674;2022-08-19T00:34:34;28.33;;;21.77;;
60730;SDS011;46580;52.114;11.674;2022-08-19T00:37:09;27.33;;;21.47;;
60730;SDS011;46580;52.114;11.674;2022-08-19T00:39:37;30.17;;;22.17;;
60730;SDS011;46580;52.114;11.674;2022-08-19T00:42:03;28.23;;;21.43;;
60730;SDS011;46580;52.114;11.674;2022-08-19T00:44:57;25.57;;;22.27;;
60730;SDS011;46580;52.114;11.674;2022-08-19T00:47:23;30.00;;;24.00;;
60730;SDS011;46580;52.114;11.674;2022-08-19T00:49:52;29.50;;;23.53;;
60730;SDS011;46580;52.114;11.674;2022-08-19T00:52:31;27.27;;;22.10;;
60730;SDS011;46580;52.114;11.674;2022-08-19T00:55:03;30.37;;;22.57;;
60730;SDS011;46580;52.114;11.674;2022-08-19T00:57:34;26.97;;;21.60;;
60730;SDS011;46580;52.114;11.674;2022-08-19T01:00:07;31.57;;;24.00;;
60730;SDS011;46580;52.114;11.674;2022-08-19T01:02:36;32.17;;;23.33;;
60730;SDS011;46580;52.114;11.674;2022-08-19T01:05:06;32.13;;;26.03;;
60730;SDS011;46580;52.114;11.674;2022-08-19T01:07:37;30.87;;;24.00;;
60730;SDS011;46580;52.114;11.674;2022-08-19T01:10:13;29.63;;;22.90;;
60730;SDS011;46580;52.114;11.674;2022-08-19T01:12:41;30.60;;;23.23;;
60730;SDS011;46580;52.114;11.674;2022-08-19T01:15:08;32.70;;;24.13;;
60730;SDS011;46580;52.114;11.674;2022-08-19T01:17:36;28.70;;;23.37;;
60730;SDS011;46580;52.114;11.674;2022-08-19T01:20:18;30.20;;;24.30;;
60730;SDS011;46580;52.114;11.674;2022-08-19T01:22:47;28.30;;;23.80;;
60730;SDS011;46580;52.114;11.674;2022-08-19T01:25:15;30.27;;;22.70;;
60730;SDS011;46580;52.114;11.674;2022-08-19T01:27:46;31.10;;;25.10;;
60730;SDS011;46580;52.114;11.674;2022-08-19T01:30:17;33.83;;;25.73;;
60730;SDS011;46580;52.114;11.674;2022-08-19T01:32:47;31.43;;;24.60;;
60730;SDS011;46580;52.114;11.674;2022-08-19T01:35:15;29.53;;;25.53;;
60730;SDS011;46580;52.114;11.674;2022-08-19T01:37:47;27.03;;;23.27;;
60730;SDS011;46580;52.114;11.674;2022-08-19T01:40:17;29.10;;;23.67;;
60730;SDS011;46580;52.114;11.674;2022-08-19T01:42:45;29.67;;;24.63;;
60730;SDS011;46580;52.114;11.674;2022-08-19T01:45:14;33.20;;;25.43;;
60730;SDS011;46580;52.114;11.674;2022-08-19T01:47:40;31.90;;;23.13;;
60730;SDS011;46580;52.114;11.674;2022-08-19T01:50:10;30.13;;;22.53;;
60730;SDS011;46580;52.114;11.674;2022-08-19T01:52:39;31.47;;;24.27;;
60730;SDS011;46580;52.114;11.674;2022-08-19T01:55:09;26.63;;;22.60;;
60730;SDS011;46580;52.114;11.674;2022-08-19T01:57:46;30.40;;;22.47;;
60730;SDS011;46580;52.114;11.674;2022-08-19T02:00:23;28.50;;;21.67;;
60730;SDS011;46580;52.114;11.674;2022-08-19T02:02:52;26.43;;;21.73;;
60730;SDS011;46580;52.114;11.674;2022-08-19T02:05:17;29.50;;;21.97;;
60730;SDS011;46580;52.114;11.674;2022-08-19T02:07:46;29.00;;;22.83;;
60730;SDS011;46580;52.114;11.674;2022-08-19T02:10:20;25.67;;;21.00;;
60730;SDS011;46580;52.114;11.674;2022-08-19T02:12:49;25.77;;;22.13;;
60730;SDS011;46580;52.114;11.674;2022-08-19T02:15:15;32.90;;;24.03;;
60730;SDS011;46580;52.114;11.674;2022-08-19T02:17:44;30.33;;;22.97;;
60730;SDS011;46580;52.114;11.674;2022-08-19T02:20:10;32.40;;;22.67;;
60730;SDS011;46580;52.114;11.674;2022-08-19T02:22:43;29.43;;;23.83;;
60730;SDS011;46580;52.114;11.674;2022-08-19T02:25:20;28.40;;;22.73;;
60730;SDS011;46580;52.114;11.674;2022-08-19T02:27:45;29.20;;;24.03;;
60730;SDS011;46580;52.114;11.674;2022-08-19T02:30:17;30.90;;;24.03;;
60730;SDS011;46580;52.114;11.674;2022-08-19T02:32:48;31.33;;;23.40;;
60730;SDS011;46580;52.114;11.674;2022-08-19T02:35:15;29.87;;;22.33;;
60730;SDS011;46580;52.114;11.674;2022-08-19T02:37:47;29.17;;;22.07;;
60730;SDS011;46580;52.114;11.674;2022-08-19T02:40:31;29.80;;;21.23;;
60730;SDS011;46580;52.114;11.674;2022-08-19T02:43:01;29.20;;;22.37;;
60730;SDS011;46580;52.114;11.674;2022-08-19T02:45:34;21.93;;;19.53;;
60730;SDS011;46580;52.114;11.674;2022-08-19T02:48:01;24.37;;;21.77;;
60730;SDS011;46580;52.114;11.674;2022-08-19T02:50:27;30.27;;;23.43;;
60730;SDS011;46580;52.114;11.674;2022-08-19T02:52:55;27.20;;;22.27;;
60730;SDS011;46580;52.114;11.674;2022-08-19T02:55:21;28.43;;;21.33;;
60730;SDS011;46580;52.114;11.674;2022-08-19T02:57:51;28.30;;;21.07;;
60730;SDS011;46580;52.114;11.674;2022-08-19T03:00:19;29.27;;;22.47;;
60730;SDS011;46580;52.114;11.674;2022-08-19T03:02:45;28.57;;;22.37;;
60730;SDS011;46580;52.114;11.674;2022-08-19T03:05:13;30.33;;;21.17;;
60730;SDS011;46580;52.114;11.674;2022-08-19T03:07:38;31.33;;;22.63;;
60730;SDS011;46580;52.114;11.674;2022-08-19T03:10:04;28.30;;;22.23;;
60730;SDS011;46580;52.114;11.674;2022-08-19T03:12:37;30.77;;;22.30;;
60730;SDS011;46580;52.114;11.674;2022-08-19T03:15:11;29.07;;;23.30;;
60730;SDS011;46580;52.114;11.674;2022-08-19T03:17:46;28.67;;;24.60;;
60730;SDS011;46580;52.114;11.674;2022-08-19T03:20:11;27.23;;;22.53;;
60730;SDS011;46580;52.114;11.674;2022-08-19T03:22:46;31.80;;;22.27;;
60730;SDS011;46580;52.114;11.674;2022-08-19T03:25:11;33.63;;;22.63;;
60730;SDS011;46580;52.114;11.674;2022-08-19T03:27:39;27.03;;;22.17;;
60730;SDS011;46580;52.114;11.674;2022-08-19T03:30:05;29.67;;;22.70;;
60730;SDS011;46580;52.114;11.674;2022-08-19T03:32:34;36.47;;;23.70;;
60730;SDS011;46580;52.114;11.674;2022-08-19T03:35:02;28.17;;;22.97;;
60730;SDS011;46580;52.114;11.674;2022-08-19T03:37:36;32.83;;;21.93;;
60730;SDS011;46580;52.114;11.674;2022-08-19T03:40:04;30.90;;;21.37;;
60730;SDS011;46580;52.114;11.674;2022-08-19T03:42:36;30.97;;;23.60;;
60730;SDS011;46580;52.114;11.674;2022-08-19T03:45:10;30.03;;;22.97;;
60730;SDS011;46580;52.114;11.674;2022-08-19T03:47:38;32.83;;;23.30;;
60730;SDS011;46580;52.114;11.674;2022-08-19T03:50:04;33.93;;;23.83;;
60730;SDS011;46580;52.114;11.674;2022-08-19T03:52:32;34.27;;;23.73;;
60730;SDS011;46580;52.114;11.674;2022-08-19T03:54:57;34.90;;;23.10;;
60730;SDS011;46580;52.114;11.674;2022-08-19T03:57:30;37.93;;;24.50;;
60730;SDS011;46580;52.114;11.674;2022-08-19T04:00:03;35.07;;;24.33;;
60730;SDS011;46580;52.114;11.674;2022-08-19T04:02:32;37.60;;;25.67;;
60730;SDS011;46580;52.114;11.674;2022-08-19T04:05:12;38.20;;;23.20;;
60730;SDS011;46580;52.114;11.674;2022-08-19T04:07:39;35.10;;;23.93;;
60730;SDS011;46580;52.114;11.674;2022-08-19T04:10:04;37.70;;;23.50;;
60730;SDS011;46580;52.114;11.674;2022-08-19T04:12:46;35.70;;;24.27;;
60730;SDS011;46580;52.114;11.674;2022-08-19T04:15:12;37.40;;;25.37;;
60730;SDS011;46580;52.114;11.674;2022-08-19T04:17:42;35.07;;;24.40;;
60730;SDS011;46580;52.114;11.674;2022-08-19T04:20:16;38.73;;;25.13;;
60730;SDS011;46580;52.114;11.674;2022-08-19T04:22:42;40.00;;;26.40;;
60730;SDS011;46580;52.114;11.674;2022-08-19T04:25:12;37.00;;;23.73;;
60730;SDS011;46580;52.114;11.674;2022-08-19T04:27:38;32.90;;;22.73;;
60730;SDS011;46580;52.114;11.674;2022-08-19T04:30:03;34.77;;;22.50;;
60730;SDS011;46580;52.114;11.674;2022-08-19T04:32:32;35.77;;;23.43;;
60730;SDS011;46580;52.114;11.674;2022-08-19T04:34:57;33.47;;;23.27;;
60730;SDS011;46580;52.114;11.674;2022-08-19T04:37:24;34.10;;;23.97;;
60730;SDS011;46580;52.114;11.674;2022-08-19T04:39:51;37.73;;;23.57;;
60730;SDS011;46580;52.114;11.674;2022-08-19T04:42:43;31.07;;;22.17;;
60730;SDS011;46580;52.114;11.674;2022-08-19T04:45:18;34.03;;;23.37;;
60730;SDS011;46580;52.114;11.674;2022-08-19T04:47:46;36.27;;;23.67;;
60730;SDS011;46580;52.114;11.674;2022-08-19T04:50:20;32.07;;;21.40;;
60730;SDS011;46580;52.114;11.674;2022-08-19T04:52:47;32.07;;;21.80;;
60730;SDS011;46580;52.114;11.674;2022-08-19T04:55:18;30.07;;;21.67;;
60730;SDS011;46580;52.114;11.674;2022-08-19T04:57:48;32.10;;;22.63;;
60730;SDS011;46580;52.114;11.674;2022-08-19T05:00:39;34.87;;;21.70;;
60730;SDS011;46580;52.114;11.674;2022-08-19T05:03:28;34.10;;;22.73;;
60730;SDS011;46580;52.114;11.674;2022-08-19T05:05:58;29.70;;;21.57;;
60730;SDS011;46580;52.114;11.674;2022-08-19T05:08:41;32.50;;;21.00;;
60730;SDS011;46580;52.114;11.674;2022-08-19T05:11:18;32.60;;;22.50;;
60730;SDS011;46580;52.114;11.674;2022-08-19T05:13:46;31.03;;;22.47;;
60730;SDS011;46580;52.114;11.674;2022-08-19T05:16:17;31.93;;;21.90;;
60730;SDS011;46580;52.114;11.674;2022-08-19T05:18:44;36.07;;;22.10;;
60730;SDS011;46580;52.114;11.674;2022-08-19T05:21:29;33.10;;;21.23;;
60730;SDS011;46580;52.114;11.674;2022-08-19T05:24:20;33.63;;;21.27;;
60730;SDS011;46580;52.114;11.674;2022-08-19T05:26:50;29.93;;;21.53;;
60730;SDS011;46580;52.114;11.674;2022-08-19T05:29:18;34.17;;;21.33;;
60730;SDS011;46580;52.114;11.674;2022-08-19T05:31:56;28.63;;;20.27;;
60730;SDS011;46580;52.114;11.674;2022-08-19T05:34:24;33.40;;;20.97;;
60730;SDS011;46580;52.114;11.674;2022-08-19T05:36:54;25.67;;;19.57;;
60730;SDS011;46580;52.114;11.674;2022-08-19T05:39:25;25.03;;;19.23;;
60730;SDS011;46580;52.114;11.674;2022-08-19T05:41:54;30.20;;;20.57;;
60730;SDS011;46580;52.114;11.674;2022-08-19T05:44:26;24.37;;;18.97;;
60730;SDS011;46580;52.114;11.674;2022-08-19T05:47:01;26.80;;;18.70;;
60730;SDS011;46580;52.114;11.674;2022-08-19T05:49:36;26.77;;;18.63;;
60730;SDS011;46580;52.114;11.674;2022-08-19T05:52:22;26.03;;;18.53;;
60730;SDS011;46580;52.114;11.674;2022-08-19T05:54:53;29.93;;;20.43;;
60730;SDS011;46580;52.114;11.674;2022-08-19T05:57:22;21.73;;;17.43;;
60730;SDS011;46580;52.114;11.674;2022-08-19T05:59:48;27.97;;;18.37;;
60730;SDS011;46580;52.114;11.674;2022-08-19T06:02:19;36.20;;;20.43;;
60730;SDS011;46580;52.114;11.674;2022-08-19T06:04:44;35.20;;;18.70;;
60730;SDS011;46580;52.114;11.674;2022-08-19T06:07:14;25.60;;;18.50;;
60730;SDS011;46580;52.114;11.674;2022-08-19T06:09:40;29.10;;;17.83;;
60730;SDS011;46580;52.114;11.674;2022-08-19T06:12:06;31.17;;;18.80;;
60730;SDS011;46580;52.114;11.674;2022-08-19T06:14:33;26.63;;;18.40;;
60730;SDS011;46580;52.114;11.674;2022-08-19T06:17:00;30.60;;;18.37;;
60730;SDS011;46580;52.114;11.674;2022-08-19T06:19:27;28.00;;;17.47;;
60730;SDS011;46580;52.114;11.674;2022-08-19T06:21:56;25.00;;;17.47;;
60730;SDS011;46580;52.114;11.674;2022-08-19T06:24:24;25.90;;;18.00;;
60730;SDS011;46580;52.114;11.674;2022-08-19T06:26:52;28.50;;;18.67;;
60730;SDS011;46580;52.114;11.674;2022-08-19T06:29:21;28.80;;;19.10;;
60730;SDS011;46580;52.114;11.674;2022-08-19T06:31:49;27.87;;;19.50;;
60730;SDS011;46580;52.114;11.674;2022-08-19T06:34:17;30.83;;;19.80;;
60730;SDS011;46580;52.114;11.674;2022-08-19T06:36:48;30.80;;;22.03;;
60730;SDS011;46580;52.114;11.674;2022-08-19T06:39:18;31.40;;;20.33;;
60730;SDS011;46580;52.114;11.674;2022-08-19T06:41:48;34.67;;;20.50;;
60730;SDS011;46580;52.114;11.674;2022-08-19T06:44:16;27.17;;;21.33;;
60730;SDS011;46580;52.114;11.674;2022-08-19T06:46:42;35.93;;;22.10;;
60730;SDS011;46580;52.114;11.674;2022-08-19T06:49:08;29.63;;;19.87;;
60730;SDS011;46580;52.114;11.674;2022-08-19T06:51:42;32.83;;;21.53;;
60730;SDS011;46580;52.114;11.674;2022-08-19T06:54:09;30.50;;;20.77;;
60730;SDS011;46580;52.114;11.674;2022-08-19T06:56:35;35.07;;;22.80;;
60730;SDS011;46580;52.114;11.674;2022-08-19T06:59:03;30.03;;;22.67;;
60730;SDS011;46580;52.114;11.674;2022-08-19T07:01:33;40.63;;;23.27;;
60730;SDS011;46580;52.114;11.674;2022-08-19T07:04:03;38.63;;;24.47;;
60730;SDS011;46580;52.114;11.674;2022-08-19T07:06:32;39.37;;;25.37;;
60730;SDS011;46580;52.114;11.674;2022-08-19T07:09:01;37.97;;;23.47;;
60730;SDS011;46580;52.114;11.674;2022-08-19T07:11:29;42.97;;;26.13;;
60730;SDS011;46580;52.114;11.674;2022-08-19T07:13:55;37.77;;;26.00;;
60730;SDS011;46580;52.114;11.674;2022-08-19T07:16:21;38.13;;;25.07;;
60730;SDS011;46580;52.114;11.674;2022-08-19T07:18:50;42.33;;;24.47;;
60730;SDS011;46580;52.114;11.674;2022-08-19T07:21:21;42.30;;;26.23;;
60730;SDS011;46580;52.114;11.674;2022-08-19T07:23:49;34.43;;;24.27;;
60730;SDS011;46580;52.114;11.674;2022-08-19T07:26:19;45.23;;;26.17;;
60730;SDS011;46580;52.114;11.674;2022-08-19T07:28:47;36.77;;;25.73;;
60730;SDS011;46580;52.114;11.674;2022-08-19T07:31:14;42.73;;;26.87;;
60730;SDS011;46580;52.114;11.674;2022-08-19T07:33:43;42.57;;;27.40;;
60730;SDS011;46580;52.114;11.674;2022-08-19T07:36:09;35.90;;;25.30;;
60730;SDS011;46580;52.114;11.674;2022-08-19T07:38:40;36.63;;;25.43;;
60730;SDS011;46580;52.114;11.674;2022-08-19T07:41:07;37.17;;;27.00;;
60730;SDS011;46580;52.114;11.674;2022-08-19T07:43:35;44.27;;;27.00;;
60730;SDS011;46580;52.114;11.674;2022-08-19T07:46:01;38.17;;;27.70;;
60730;SDS011;46580;52.114;11.674;2022-08-19T07:48:27;43.50;;;27.30;;
60730;SDS011;46580;52.114;11.674;2022-08-19T07:50:57;42.53;;;26.23;;
60730;SDS011;46580;52.114;11.674;2022-08-19T07:53:27;38.93;;;27.43;;
60730;SDS011;46580;52.114;11.674;2022-08-19T07:55:53;39.17;;;25.93;;
60730;SDS011;46580;52.114;11.674;2022-08-19T07:58:20;43.30;;;26.70;;
60730;SDS011;46580;52.114;11.674;2022-08-19T08:00:47;35.10;;;25.70;;
60730;SDS011;46580;52.114;11.674;2022-08-19T08:03:14;48.43;;;26.93;;
60730;SDS011;46580;52.114;11.674;2022-08-19T08:05:41;37.73;;;26.23;;
60730;SDS011;46580;52.114;11.674;2022-08-19T08:08:25;41.33;;;26.83;;
60730;SDS011;46580;52.114;11.674;2022-08-19T08:11:01;35.97;;;26.03;;
60730;SDS011;46580;52.114;11.674;2022-08-19T08:13:28;33.03;;;25.80;;
60730;SDS011;46580;52.114;11.674;2022-08-19T08:15:53;36.77;;;26.67;;
60730;SDS011;46580;52.114;11.674;2022-08-19T08:18:19;38.40;;;26.23;;
60730;SDS011;46580;52.114;11.674;2022-08-19T08:20:46;38.23;;;25.43;;
60730;SDS011;46580;52.114;11.674;2022-08-19T08:23:12;35.57;;;24.70;;
60730;SDS011;46580;52.114;11.674;2022-08-19T08:25:55;36.53;;;24.07;;
60730;SDS011;46580;52.114;11.674;2022-08-19T08:28:22;33.70;;;24.40;;
60730;SDS011;46580;52.114;11.674;2022-08-19T08:30:49;35.80;;;23.03;;
60730;SDS011;46580;52.114;11.674;2022-08-19T08:33:22;35.50;;;23.00;;
60730;SDS011;46580;52.114;11.674;2022-08-19T08:35:49;34.07;;;22.27;;
60730;SDS011;46580;52.114;11.674;2022-08-19T08:38:15;34.67;;;22.27;;
60730;SDS011;46580;52.114;11.674;2022-08-19T08:40:53;32.47;;;22.77;;
60730;SDS011;46580;52.114;11.674;2022-08-19T08:43:38;30.47;;;21.77;;
60730;SDS011;46580;52.114;11.674;2022-08-19T08:48:54;31.63;;;20.23;;
60730;SDS011;46580;52.114;11.674;2022-08-19T08:54:10;32.57;;;21.53;;
60730;SDS011;46580;52.114;11.674;2022-08-19T08:56:44;30.23;;;20.57;;
60730;SDS011;46580;52.114;11.674;2022-08-19T09:01:52;28.63;;;19.90;;
60730;SDS011;46580;52.114;11.674;2022-08-19T09:04:18;29.03;;;18.77;;
60730;SDS011;46580;52.114;11.674;2022-08-19T09:09:51;24.47;;;16.53;;
60730;SDS011;46580;52.114;11.674;2022-08-19T09:14:53;23.30;;;15.87;;
60730;SDS011;46580;52.114;11.674;2022-08-19T09:17:24;26.20;;;15.83;;
60730;SDS011;46580;52.114;11.674;2022-08-19T09:22:31;24.63;;;15.33;;
60730;SDS011;46580;52.114;11.674;2022-08-19T09:24:56;21.87;;;14.77;;
60730;SDS011;46580;52.114;11.674;2022-08-19T09:27:22;23.10;;;14.23;;
60730;SDS011;46580;52.114;11.674;2022-08-19T09:29:50;22.17;;;14.47;;
60730;SDS011;46580;52.114;11.674;2022-08-19T09:32:16;22.07;;;15.27;;
60730;SDS011;46580;52.114;11.674;2022-08-19T09:34:43;17.70;;;14.10;;
60730;SDS011;46580;52.114;11.674;2022-08-19T09:37:09;23.10;;;14.07;;
60730;SDS011;46580;52.114;11.674;2022-08-19T09:39:35;20.00;;;13.70;;
60730;SDS011;46580;52.114;11.674;2022-08-19T09:42:05;19.97;;;14.70;;
60730;SDS011;46580;52.114;11.674;2022-08-19T09:44:36;21.37;;;13.33;;
60730;SDS011;46580;52.114;11.674;2022-08-19T09:47:04;20.10;;;13.80;;
60730;SDS011;46580;52.114;11.674;2022-08-19T09:49:30;19.93;;;14.00;;
60730;SDS011;46580;52.114;11.674;2022-08-19T09:51:56;23.23;;;14.77;;
60730;SDS011;46580;52.114;11.674;2022-08-19T09:54:22;21.27;;;14.17;;
60730;SDS011;46580;52.114;11.674;2022-08-19T09:56:48;23.33;;;14.07;;
60730;SDS011;46580;52.114;11.674;2022-08-19T09:59:13;19.50;;;13.30;;
60730;SDS011;46580;52.114;11.674;2022-08-19T10:01:39;22.70;;;14.23;;
60730;SDS011;46580;52.114;11.674;2022-08-19T10:04:05;17.10;;;13.93;;
60730;SDS011;46580;52.114;11.674;2022-08-19T10:06:33;19.10;;;12.87;;
60730;SDS011;46580;52.114;11.674;2022-08-19T10:09:00;21.83;;;13.70;;
60730;SDS011;46580;52.114;11.674;2022-08-19T10:11:26;19.40;;;13.57;;
60730;SDS011;46580;52.114;11.674;2022-08-19T10:13:52;20.87;;;14.20;;
60730;SDS011;46580;52.114;11.674;2022-08-19T10:16:19;21.53;;;13.57;;
60730;SDS011;46580;52.114;11.674;2022-08-19T10:18:47;16.30;;;13.27;;
60730;SDS011;46580;52.114;11.674;2022-08-19T10:21:16;19.83;;;12.07;;
60730;SDS011;46580;52.114;11.674;2022-08-19T10:23:53;23.43;;;12.73;;
60730;SDS011;46580;52.114;11.674;2022-08-19T10:26:24;15.03;;;12.03;;
60730;SDS011;46580;52.114;11.674;2022-08-19T10:28:54;16.40;;;13.07;;
60730;SDS011;46580;52.114;11.674;2022-08-19T10:31:21;21.83;;;14.03;;
60730;SDS011;46580;52.114;11.674;2022-08-19T10:33:49;20.10;;;13.13;;
60730;SDS011;46580;52.114;11.674;2022-08-19T10:36:22;18.33;;;13.27;;
60730;SDS011;46580;52.114;11.674;2022-08-19T10:38:49;18.27;;;14.27;;
60730;SDS011;46580;52.114;11.674;2022-08-19T10:41:18;18.27;;;12.90;;
60730;SDS011;46580;52.114;11.674;2022-08-19T10:43:47;17.70;;;12.80;;
60730;SDS011;46580;52.114;11.674;2022-08-19T10:46:17;16.80;;;12.57;;
60730;SDS011;46580;52.114;11.674;2022-08-19T10:48:43;18.90;;;12.23;;
60730;SDS011;46580;52.114;11.674;2022-08-19T10:51:10;17.63;;;13.10;;
60730;SDS011;46580;52.114;11.674;2022-08-19T10:53:55;21.73;;;13.50;;
60730;SDS011;46580;52.114;11.674;2022-08-19T10:56:22;16.77;;;13.40;;
60730;SDS011;46580;52.114;11.674;2022-08-19T10:59:06;20.70;;;14.30;;
60730;SDS011;46580;52.114;11.674;2022-08-19T11:01:32;19.67;;;13.37;;
60730;SDS011;46580;52.114;11.674;2022-08-19T11:04:02;19.13;;;13.23;;
60730;SDS011;46580;52.114;11.674;2022-08-19T11:06:29;17.67;;;13.27;;
60730;SDS011;46580;52.114;11.674;2022-08-19T11:08:58;20.47;;;13.80;;
60730;SDS011;46580;52.114;11.674;2022-08-19T11:11:25;17.70;;;13.27;;
60730;SDS011;46580;52.114;11.674;2022-08-19T11:13:51;18.70;;;13.20;;
60730;SDS011;46580;52.114;11.674;2022-08-19T11:16:19;18.53;;;12.30;;
60730;SDS011;46580;52.114;11.674;2022-08-19T11:18:53;18.53;;;13.63;;
60730;SDS011;46580;52.114;11.674;2022-08-19T11:23:48;19.60;;;12.93;;
60730;SDS011;46580;52.114;11.674;2022-08-19T11:26:16;15.67;;;12.70;;
60730;SDS011;46580;52.114;11.674;2022-08-19T11:28:44;22.23;;;12.70;;
60730;SDS011;46580;52.114;11.674;2022-08-19T11:31:21;18.20;;;12.00;;
60730;SDS011;46580;52.114;11.674;2022-08-19T11:33:48;15.40;;;12.77;;
60730;SDS011;46580;52.114;11.674;2022-08-19T11:36:18;18.83;;;12.57;;
60730;SDS011;46580;52.114;11.674;2022-08-19T11:38:44;15.30;;;11.93;;
60730;SDS011;46580;52.114;11.674;2022-08-19T11:41:10;17.33;;;12.53;;
60730;SDS011;46580;52.114;11.674;2022-08-19T11:43:36;14.90;;;11.77;;
60730;SDS011;46580;52.114;11.674;2022-08-19T11:46:09;15.43;;;11.57;;
60730;SDS011;46580;52.114;11.674;2022-08-19T11:48:37;18.20;;;12.53;;
60730;SDS011;46580;52.114;11.674;2022-08-19T11:51:03;15.73;;;11.63;;
60730;SDS011;46580;52.114;11.674;2022-08-19T11:53:31;15.17;;;12.10;;
60730;SDS011;46580;52.114;11.674;2022-08-19T11:55:57;14.67;;;11.67;;
60730;SDS011;46580;52.114;11.674;2022-08-19T11:58:23;12.90;;;11.50;;
60730;SDS011;46580;52.114;11.674;2022-08-19T12:00:50;15.73;;;10.90;;
60730;SDS011;46580;52.114;11.674;2022-08-19T12:03:16;14.70;;;11.13;;
60730;SDS011;46580;52.114;11.674;2022-08-19T12:05:42;16.43;;;11.63;;
60730;SDS011;46580;52.114;11.674;2022-08-19T12:08:07;17.60;;;10.47;;
60730;SDS011;46580;52.114;11.674;2022-08-19T12:10:34;13.50;;;10.03;;
60730;SDS011;46580;52.114;11.674;2022-08-19T12:13:00;12.97;;;10.70;;
60730;SDS011;46580;52.114;11.674;2022-08-19T12:15:28;13.13;;;10.07;;
60730;SDS011;46580;52.114;11.674;2022-08-19T12:17:54;13.60;;;10.43;;
60730;SDS011;46580;52.114;11.674;2022-08-19T12:20:22;12.30;;;9.67;;
60730;SDS011;46580;52.114;11.674;2022-08-19T12:22:49;12.13;;;10.47;;
60730;SDS011;46580;52.114;11.674;2022-08-19T12:25:15;12.67;;;9.93;;
60730;SDS011;46580;52.114;11.674;2022-08-19T12:27:41;14.33;;;10.40;;
60730;SDS011;46580;52.114;11.674;2022-08-19T12:30:08;13.97;;;10.93;;
60730;SDS011;46580;52.114;11.674;2022-08-19T12:32:36;16.93;;;10.00;;
60730;SDS011;46580;52.114;11.674;2022-08-19T12:35:02;13.27;;;10.23;;
60730;SDS011;46580;52.114;11.674;2022-08-19T12:37:28;11.50;;;8.67;;
60730;SDS011;46580;52.114;11.674;2022-08-19T12:39:54;13.10;;;9.87;;
60730;SDS011;46580;52.114;11.674;2022-08-19T12:42:20;13.53;;;10.20;;
60730;SDS011;46580;52.114;11.674;2022-08-19T12:44:46;11.90;;;9.33;;
60730;SDS011;46580;52.114;11.674;2022-08-19T12:47:12;13.10;;;9.57;;
60730;SDS011;46580;52.114;11.674;2022-08-19T12:49:42;11.60;;;9.50;;
60730;SDS011;46580;52.114;11.674;2022-08-19T12:52:09;11.27;;;9.33;;
60730;SDS011;46580;52.114;11.674;2022-08-19T12:54:36;11.03;;;9.87;;
60730;SDS011;46580;52.114;11.674;2022-08-19T12:57:09;16.17;;;9.77;;
60730;SDS011;46580;52.114;11.674;2022-08-19T12:59:36;13.27;;;10.27;;
60730;SDS011;46580;52.114;11.674;2022-08-19T13:02:03;10.00;;;8.77;;
60730;SDS011;46580;52.114;11.674;2022-08-19T13:04:31;11.47;;;9.93;;
60730;SDS011;46580;52.114;11.674;2022-08-19T13:07:00;11.50;;;9.60;;
60730;SDS011;46580;52.114;11.674;2022-08-19T13:09:25;12.07;;;9.80;;
60730;SDS011;46580;52.114;11.674;2022-08-19T13:11:51;13.80;;;8.27;;
60730;SDS011;46580;52.114;11.674;2022-08-19T13:14:16;12.40;;;8.80;;
60730;SDS011;46580;52.114;11.674;2022-08-19T13:16:42;13.60;;;10.43;;
60730;SDS011;46580;52.114;11.674;2022-08-19T13:19:08;14.20;;;10.23;;
60730;SDS011;46580;52.114;11.674;2022-08-19T13:21:33;11.33;;;9.33;;
60730;SDS011;46580;52.114;11.674;2022-08-19T13:23:59;16.67;;;10.47;;
60730;SDS011;46580;52.114;11.674;2022-08-19T13:26:24;11.63;;;10.30;;
60730;SDS011;46580;52.114;11.674;2022-08-19T13:28:49;14.90;;;10.00;;
60730;SDS011;46580;52.114;11.674;2022-08-19T13:31:34;11.07;;;9.30;;
60730;SDS011;46580;52.114;11.674;2022-08-19T13:34:25;12.17;;;9.77;;
60730;SDS011;46580;52.114;11.674;2022-08-19T13:36:55;13.17;;;10.53;;
60730;SDS011;46580;52.114;11.674;2022-08-19T13:39:21;13.77;;;9.43;;
60730;SDS011;46580;52.114;11.674;2022-08-19T13:41:48;12.70;;;9.33;;
60730;SDS011;46580;52.114;11.674;2022-08-19T13:44:15;12.13;;;9.57;;
60730;SDS011;46580;52.114;11.674;2022-08-19T13:46:48;10.97;;;8.83;;
60730;SDS011;46580;52.114;11.674;2022-08-19T13:49:17;12.47;;;8.63;;
60730;SDS011;46580;52.114;11.674;2022-08-19T13:51:43;9.57;;;8.57;;
60730;SDS011;46580;52.114;11.674;2022-08-19T13:54:09;15.33;;;9.27;;
60730;SDS011;46580;52.114;11.674;2022-08-19T13:56:39;10.73;;;8.53;;
60730;SDS011;46580;52.114;11.674;2022-08-19T13:59:06;11.73;;;8.43;;
60730;SDS011;46580;52.114;11.674;2022-08-19T14:01:31;14.13;;;8.70;;
60730;SDS011;46580;52.114;11.674;2022-08-19T14:03:57;11.27;;;7.90;;
60730;SDS011;46580;52.114;11.674;2022-08-19T14:06:22;10.33;;;8.93;;
60730;SDS011;46580;52.114;11.674;2022-08-19T14:08:48;12.80;;;9.10;;
60730;SDS011;46580;52.114;11.674;2022-08-19T14:11:13;11.10;;;8.30;;
60730;SDS011;46580;52.114;11.674;2022-08-19T14:13:39;14.60;;;8.50;;
60730;SDS011;46580;52.114;11.674;2022-08-19T14:16:08;14.00;;;8.37;;
60730;SDS011;46580;52.114;11.674;2022-08-19T14:18:35;11.17;;;7.97;;
60730;SDS011;46580;52.114;11.674;2022-08-19T14:21:00;8.67;;;7.37;;
60730;SDS011;46580;52.114;11.674;2022-08-19T14:23:27;10.90;;;8.27;;
60730;SDS011;46580;52.114;11.674;2022-08-19T14:25:53;9.57;;;8.07;;
60730;SDS011;46580;52.114;11.674;2022-08-19T14:28:36;14.63;;;7.93;;
60730;SDS011;46580;52.114;11.674;2022-08-19T14:31:02;10.77;;;8.53;;
60730;SDS011;46580;52.114;11.674;2022-08-19T14:33:27;12.17;;;8.13;;
60730;SDS011;46580;52.114;11.674;2022-08-19T14:35:56;13.80;;;7.97;;
60730;SDS011;46580;52.114;11.674;2022-08-19T14:38:21;9.50;;;7.93;;
60730;SDS011;46580;52.114;11.674;2022-08-19T14:40:47;12.60;;;9.10;;
60730;SDS011;46580;52.114;11.674;2022-08-19T14:43:14;9.93;;;8.50;;